sensor_id;sensor_type;location;lat;lon;timestamp;pressure;altitude;pressure_sealevel;temperature;humidity
60832;BME280;46665;51.558;-0.448;2022-12-18T00:00:56;101705.69;;;-3.61;100.00
60832;BME280;46665;51.558;-0.448;2022-12-18T00:03:40;101698.34;;;-3.67;100.00
60832;BME280;46665;51.558;-0.448;2022-12-18T00:06:28;101684.22;;;-3.68;100.00
60832;BME280;46665;51.558;-0.448;2022-12-18T00:09:12;101687.69;;;-3.67;100.00
60832;BME280;46665;51.558;-0.448;2022-12-18T00:11:57;101672.75;;;-3.68;100.00
60832;BME280;46665;51.558;-0.448;2022-12-18T00:14:42;101663.94;;;-3.69;100.00
60832;BME280;46665;51.558;-0.448;2022-12-18T00:17:25;101667.28;;;-3.67;100.00
60832;BME280;46665;51.558;-0.448;2022-12-18T00:20:10;101672.88;;;-3.70;100.00
60832;BME280;46665;51.558;-0.448;2022-12-18T00:22:54;101671.91;;;-3.69;100.00
60832;BME280;46665;51.558;-0.448;2022-12-18T00:25:38;101668.44;;;-3.69;100.00
60832;BME280;46665;51.558;-0.448;2022-12-18T00:28:22;101671.72;;;-3.67;100.00
60832;BME280;46665;51.558;-0.448;2022-12-18T00:31:08;101678.75;;;-3.66;100.00
60832;BME280;46665;51.558;-0.448;2022-12-18T00:33:56;101673.75;;;-3.69;100.00
60832;BME280;46665;51.558;-0.448;2022-12-18T00:36:41;101667.06;;;-3.74;100.00
60832;BME280;46665;51.558;-0.448;2022-12-18T00:39:25;101665.56;;;-3.76;100.00
60832;BME280;46665;51.558;-0.448;2022-12-18T00:42:10;101668.56;;;-3.79;100.00
60832;BME280;46665;51.558;-0.448;2022-12-18T00:45:13;101669.53;;;-3.80;100.00
60832;BME280;46665;51.558;-0.448;2022-12-18T00:47:57;101668.03;;;-3.83;100.00
60832;BME280;46665;51.558;-0.448;2022-12-18T00:50:41;101670.69;;;-3.83;100.00
60832;BME280;46665;51.558;-0.448;2022-12-18T00:53:25;101659.22;;;-3.83;100.00
60832;BME280;46665;51.558;-0.448;2022-12-18T00:56:09;101652.75;;;-3.81;100.00
60832;BME280;46665;51.558;-0.448;2022-12-18T00:58:53;101659.06;;;-3.82;100.00
60832;BME280;46665;51.558;-0.448;2022-12-18T01:01:37;101652.75;;;-3.81;100.00
60832;BME280;46665;51.558;-0.448;2022-12-18T01:04:21;101656.25;;;-3.80;100.00
60832;BME280;46665;51.558;-0.448;2022-12-18T01:07:05;101646.47;;;-3.80;100.00
60832;BME280;46665;51.558;-0.448;2022-12-18T01:09:49;101656.59;;;-3.75;100.00
60832;BME280;46665;51.558;-0.448;2022-12-18T01:12:33;101653.09;;;-3.76;100.00
60832;BME280;46665;51.558;-0.448;2022-12-18T01:15:19;101648.78;;;-3.77;100.00
60832;BME280;46665;51.558;-0.448;2022-12-18T01:18:05;101642.31;;;-3.74;100.00
60832;BME280;46665;51.558;-0.448;2022-12-18T01:20:49;101633.31;;;-3.73;100.00
60832;BME280;46665;51.558;-0.448;2022-12-18T01:23:33;101631.16;;;-3.78;100.00
60832;BME280;46665;51.558;-0.448;2022-12-18T01:26:17;101627.19;;;-3.74;100.00
60832;BME280;46665;51.558;-0.448;2022-12-18T01:29:01;101628.53;;;-3.69;100.00
60832;BME280;46665;51.558;-0.448;2022-12-18T01:31:45;101622.69;;;-3.65;100.00
60832;BME280;46665;51.558;-0.448;2022-12-18T01:34:29;101620.38;;;-3.60;100.00
60832;BME280;46665;51.558;-0.448;2022-12-18T01:37:12;101621.88;;;-3.57;100.00
60832;BME280;46665;51.558;-0.448;2022-12-18T01:39:57;101610.25;;;-3.56;100.00
60832;BME280;46665;51.558;-0.448;2022-12-18T01:42:41;101605.75;;;-3.56;100.00
60832;BME280;46665;51.558;-0.448;2022-12-18T01:45:27;101594.97;;;-3.54;100.00
60832;BME280;46665;51.558;-0.448;2022-12-18T01:48:12;101599.59;;;-3.48;100.00
60832;BME280;46665;51.558;-0.448;2022-12-18T01:50:56;101594.63;;;-3.51;100.00
60832;BME280;46665;51.558;-0.448;2022-12-18T01:53:41;101596.13;;;-3.49;100.00
60832;BME280;46665;51.558;-0.448;2022-12-18T01:56:26;101592.44;;;-3.47;100.00
60832;BME280;46665;51.558;-0.448;2022-12-18T01:59:11;101593.94;;;-3.45;100.00
60832;BME280;46665;51.558;-0.448;2022-12-18T02:01:56;101606.28;;;-3.44;100.00
60832;BME280;46665;51.558;-0.448;2022-12-18T02:04:40;101614.75;;;-3.49;100.00
60832;BME280;46665;51.558;-0.448;2022-12-18T02:07:41;101605.94;;;-3.49;100.00
60832;BME280;46665;51.558;-0.448;2022-12-18T02:13:41;101618.09;;;-3.46;100.00
60832;BME280;46665;51.558;-0.448;2022-12-18T02:17:10;101623.91;;;-3.43;100.00
60832;BME280;46665;51.558;-0.448;2022-12-18T02:26:06;101624.03;;;-3.44;100.00
60832;BME280;46665;51.558;-0.448;2022-12-18T02:31:51;101627.38;;;-3.59;100.00
60832;BME280;46665;51.558;-0.448;2022-12-18T02:34:38;101632.16;;;-3.62;100.00
60832;BME280;46665;51.558;-0.448;2022-12-18T02:37:24;101637.00;;;-3.66;100.00
60832;BME280;46665;51.558;-0.448;2022-12-18T02:40:11;101644.97;;;-3.74;100.00
60832;BME280;46665;51.558;-0.448;2022-12-18T02:43:09;101645.44;;;-3.79;100.00
60832;BME280;46665;51.558;-0.448;2022-12-18T02:45:56;101648.78;;;-3.77;100.00
60832;BME280;46665;51.558;-0.448;2022-12-18T02:48:40;101647.09;;;-3.78;100.00
60832;BME280;46665;51.558;-0.448;2022-12-18T02:51:29;101645.78;;;-3.74;100.00
60832;BME280;46665;51.558;-0.448;2022-12-18T02:57:37;101648.78;;;-3.68;100.00
60832;BME280;46665;51.558;-0.448;2022-12-18T03:00:34;101638.16;;;-3.68;100.00
60832;BME280;46665;51.558;-0.448;2022-12-18T03:03:26;101630.03;;;-3.67;100.00
60832;BME280;46665;51.558;-0.448;2022-12-18T03:06:25;101630.66;;;-3.65;100.00
60832;BME280;46665;51.558;-0.448;2022-12-18T03:09:15;101619.38;;;-3.67;100.00
60832;BME280;46665;51.558;-0.448;2022-12-18T03:15:20;101608.91;;;-3.68;100.00
60832;BME280;46665;51.558;-0.448;2022-12-18T03:18:19;101605.06;;;-3.66;100.00
60832;BME280;46665;51.558;-0.448;2022-12-18T03:21:07;101600.44;;;-3.64;100.00
60832;BME280;46665;51.558;-0.448;2022-12-18T03:23:54;101585.97;;;-3.61;100.00
60832;BME280;46665;51.558;-0.448;2022-12-18T03:26:42;101581.31;;;-3.59;100.00
60832;BME280;46665;51.558;-0.448;2022-12-18T03:29:36;101592.44;;;-3.56;100.00
60832;BME280;46665;51.558;-0.448;2022-12-18T03:32:29;101578.31;;;-3.56;100.00
60832;BME280;46665;51.558;-0.448;2022-12-18T03:35:19;101581.31;;;-3.51;100.00
60832;BME280;46665;51.558;-0.448;2022-12-18T03:38:05;101583.63;;;-3.48;100.00
60832;BME280;46665;51.558;-0.448;2022-12-18T03:43:52;101598.44;;;-3.54;100.00
60832;BME280;46665;51.558;-0.448;2022-12-18T03:47:11;101593.94;;;-3.53;100.00
60832;BME280;46665;51.558;-0.448;2022-12-18T03:49:59;101589.94;;;-3.57;100.00
60832;BME280;46665;51.558;-0.448;2022-12-18T03:52:49;101570.31;;;-3.73;100.00
60832;BME280;46665;51.558;-0.448;2022-12-18T03:55:35;101565.00;;;-3.73;100.00
60832;BME280;46665;51.558;-0.448;2022-12-18T03:58:25;101549.03;;;-3.73;100.00
60832;BME280;46665;51.558;-0.448;2022-12-18T04:01:12;101566.34;;;-3.68;100.00
60832;BME280;46665;51.558;-0.448;2022-12-18T04:03:59;101558.84;;;-3.73;100.00
60832;BME280;46665;51.558;-0.448;2022-12-18T04:06:46;101567.16;;;-3.68;100.00
60832;BME280;46665;51.558;-0.448;2022-12-18T04:09:32;101566.66;;;-3.63;100.00
60832;BME280;46665;51.558;-0.448;2022-12-18T04:12:17;101582.63;;;-3.63;100.00
60832;BME280;46665;51.558;-0.448;2022-12-18T04:15:01;101569.00;;;-3.60;100.00
60832;BME280;46665;51.558;-0.448;2022-12-18T04:17:49;101558.69;;;-3.55;100.00
60832;BME280;46665;51.558;-0.448;2022-12-18T04:20:33;101551.72;;;-3.48;100.00
60832;BME280;46665;51.558;-0.448;2022-12-18T04:23:18;101556.69;;;-3.45;100.00
60832;BME280;46665;51.558;-0.448;2022-12-18T04:26:02;101557.38;;;-3.51;100.00
60832;BME280;46665;51.558;-0.448;2022-12-18T04:28:46;101558.03;;;-3.49;100.00
60832;BME280;46665;51.558;-0.448;2022-12-18T04:31:30;101547.06;;;-3.46;100.00
60832;BME280;46665;51.558;-0.448;2022-12-18T04:34:14;101542.22;;;-3.42;100.00
60832;BME280;46665;51.558;-0.448;2022-12-18T04:36:58;101546.03;;;-3.37;100.00
60832;BME280;46665;51.558;-0.448;2022-12-18T04:39:42;101547.53;;;-3.34;100.00
60832;BME280;46665;51.558;-0.448;2022-12-18T04:42:26;101547.22;;;-3.31;100.00
60832;BME280;46665;51.558;-0.448;2022-12-18T04:45:10;101546.06;;;-3.29;100.00
60832;BME280;46665;51.558;-0.448;2022-12-18T04:47:57;101540.72;;;-3.29;100.00
60832;BME280;46665;51.558;-0.448;2022-12-18T04:50:41;101536.38;;;-3.30;100.00
60832;BME280;46665;51.558;-0.448;2022-12-18T04:53:25;101520.09;;;-3.27;100.00
60832;BME280;46665;51.558;-0.448;2022-12-18T04:56:12;101505.63;;;-3.24;100.00
60832;BME280;46665;51.558;-0.448;2022-12-18T04:58:57;101495.47;;;-3.20;100.00
60832;BME280;46665;51.558;-0.448;2022-12-18T05:01:41;101492.97;;;-3.14;100.00
60832;BME280;46665;51.558;-0.448;2022-12-18T05:04:25;101488.28;;;-3.12;100.00
60832;BME280;46665;51.558;-0.448;2022-12-18T05:07:09;101491.94;;;-3.13;100.00
60832;BME280;46665;51.558;-0.448;2022-12-18T05:09:53;101480.78;;;-3.08;100.00
60832;BME280;46665;51.558;-0.448;2022-12-18T05:12:37;101485.94;;;-3.07;100.00
60832;BME280;46665;51.558;-0.448;2022-12-18T05:15:41;101468.47;;;-3.09;100.00
60832;BME280;46665;51.558;-0.448;2022-12-18T05:18:25;101455.50;;;-3.12;100.00
60832;BME280;46665;51.558;-0.448;2022-12-18T05:21:10;101450.53;;;-3.15;100.00
60832;BME280;46665;51.558;-0.448;2022-12-18T05:23:54;101453.19;;;-3.15;100.00
60832;BME280;46665;51.558;-0.448;2022-12-18T05:26:38;101450.00;;;-3.11;100.00
60832;BME280;46665;51.558;-0.448;2022-12-18T05:29:22;101455.47;;;-3.04;100.00
60832;BME280;46665;51.558;-0.448;2022-12-18T05:32:06;101436.50;;;-3.01;100.00
60832;BME280;46665;51.558;-0.448;2022-12-18T05:34:49;101428.81;;;-2.96;100.00
60832;BME280;46665;51.558;-0.448;2022-12-18T05:37:34;101419.78;;;-2.87;100.00
60832;BME280;46665;51.558;-0.448;2022-12-18T05:40:18;101426.06;;;-2.79;100.00
60832;BME280;46665;51.558;-0.448;2022-12-18T05:43:02;101412.25;;;-2.75;100.00
60832;BME280;46665;51.558;-0.448;2022-12-18T05:45:49;101426.34;;;-2.66;100.00
60832;BME280;46665;51.558;-0.448;2022-12-18T05:48:33;101433.66;;;-2.60;100.00
60832;BME280;46665;51.558;-0.448;2022-12-18T05:51:21;101433.22;;;-2.49;100.00
60832;BME280;46665;51.558;-0.448;2022-12-18T05:54:05;101425.19;;;-2.41;100.00
60832;BME280;46665;51.558;-0.448;2022-12-18T05:56:49;101417.31;;;-2.34;100.00
60832;BME280;46665;51.558;-0.448;2022-12-18T05:59:33;101414.41;;;-2.24;100.00
60832;BME280;46665;51.558;-0.448;2022-12-18T06:02:17;101407.38;;;-2.17;100.00
60832;BME280;46665;51.558;-0.448;2022-12-18T06:05:01;101396.81;;;-2.10;100.00
60832;BME280;46665;51.558;-0.448;2022-12-18T06:07:45;101400.25;;;-2.02;100.00
60832;BME280;46665;51.558;-0.448;2022-12-18T06:10:30;101401.72;;;-1.99;100.00
60832;BME280;46665;51.558;-0.448;2022-12-18T06:13:14;101386.47;;;-1.90;100.00
60832;BME280;46665;51.558;-0.448;2022-12-18T06:15:58;101394.41;;;-1.82;100.00
60832;BME280;46665;51.558;-0.448;2022-12-18T06:18:42;101371.50;;;-1.77;100.00
60832;BME280;46665;51.558;-0.448;2022-12-18T06:21:26;101357.25;;;-1.69;100.00
60832;BME280;46665;51.558;-0.448;2022-12-18T06:24:11;101356.50;;;-1.63;100.00
60832;BME280;46665;51.558;-0.448;2022-12-18T06:26:54;101342.63;;;-1.58;100.00
60832;BME280;46665;51.558;-0.448;2022-12-18T06:29:38;101340.69;;;-1.49;100.00
60832;BME280;46665;51.558;-0.448;2022-12-18T06:32:22;101332.94;;;-1.44;100.00
60832;BME280;46665;51.558;-0.448;2022-12-18T06:35:07;101341.88;;;-1.37;100.00
60832;BME280;46665;51.558;-0.448;2022-12-18T06:37:51;101341.16;;;-1.31;100.00
60832;BME280;46665;51.558;-0.448;2022-12-18T06:40:37;101338.94;;;-1.27;100.00
60832;BME280;46665;51.558;-0.448;2022-12-18T06:43:22;101340.22;;;-1.23;100.00
60832;BME280;46665;51.558;-0.448;2022-12-18T06:46:06;101340.66;;;-1.20;100.00
60832;BME280;46665;51.558;-0.448;2022-12-18T06:48:50;101348.50;;;-1.18;100.00
60832;BME280;46665;51.558;-0.448;2022-12-18T06:51:34;101345.53;;;-1.08;100.00
60832;BME280;46665;51.558;-0.448;2022-12-18T06:54:18;101351.16;;;-1.03;100.00
60832;BME280;46665;51.558;-0.448;2022-12-18T06:57:02;101351.41;;;-0.98;100.00
60832;BME280;46665;51.558;-0.448;2022-12-18T06:59:46;101342.84;;;-0.94;100.00
60832;BME280;46665;51.558;-0.448;2022-12-18T07:02:30;101334.63;;;-0.92;100.00
60832;BME280;46665;51.558;-0.448;2022-12-18T07:05:14;101340.22;;;-0.87;100.00
60832;BME280;46665;51.558;-0.448;2022-12-18T07:07:58;101333.69;;;-0.84;100.00
60832;BME280;46665;51.558;-0.448;2022-12-18T07:10:42;101326.69;;;-0.85;100.00
60832;BME280;46665;51.558;-0.448;2022-12-18T07:13:27;101331.09;;;-0.78;100.00
60832;BME280;46665;51.558;-0.448;2022-12-18T07:16:13;101315.88;;;-0.77;100.00
60832;BME280;46665;51.558;-0.448;2022-12-18T07:18:57;101337.53;;;-0.72;100.00
60832;BME280;46665;51.558;-0.448;2022-12-18T07:21:41;101327.47;;;-0.70;100.00
60832;BME280;46665;51.558;-0.448;2022-12-18T07:24:26;101329.94;;;-0.69;100.00
60832;BME280;46665;51.558;-0.448;2022-12-18T07:27:10;101318.69;;;-0.64;100.00
60832;BME280;46665;51.558;-0.448;2022-12-18T07:29:54;101310.47;;;-0.62;100.00
60832;BME280;46665;51.558;-0.448;2022-12-18T07:32:38;101303.28;;;-0.62;100.00
60832;BME280;46665;51.558;-0.448;2022-12-18T07:35:22;101298.75;;;-0.61;100.00
60832;BME280;46665;51.558;-0.448;2022-12-18T07:38:06;101299.41;;;-0.59;100.00
60832;BME280;46665;51.558;-0.448;2022-12-18T07:40:50;101293.66;;;-0.56;100.00
60832;BME280;46665;51.558;-0.448;2022-12-18T07:43:35;101284.19;;;-0.59;100.00
60832;BME280;46665;51.558;-0.448;2022-12-18T07:46:19;101298.84;;;-0.55;100.00
60832;BME280;46665;51.558;-0.448;2022-12-18T07:49:03;101288.78;;;-0.53;100.00
60832;BME280;46665;51.558;-0.448;2022-12-18T07:51:47;101295.78;;;-0.52;100.00
60832;BME280;46665;51.558;-0.448;2022-12-18T07:54:32;101284.69;;;-0.49;100.00
60832;BME280;46665;51.558;-0.448;2022-12-18T07:57:16;101284.91;;;-0.50;100.00
60832;BME280;46665;51.558;-0.448;2022-12-18T08:00:01;101274.00;;;-0.49;100.00
60832;BME280;46665;51.558;-0.448;2022-12-18T08:02:45;101278.75;;;-0.44;100.00
60832;BME280;46665;51.558;-0.448;2022-12-18T08:05:28;101258.41;;;-0.45;100.00
60832;BME280;46665;51.558;-0.448;2022-12-18T08:08:12;101263.38;;;-0.42;100.00
60832;BME280;46665;51.558;-0.448;2022-12-18T08:10:57;101277.75;;;-0.43;100.00
60832;BME280;46665;51.558;-0.448;2022-12-18T08:13:41;101279.59;;;-0.44;100.00
60832;BME280;46665;51.558;-0.448;2022-12-18T08:16:25;101293.41;;;-0.40;100.00
60832;BME280;46665;51.558;-0.448;2022-12-18T08:19:10;101291.38;;;-0.38;100.00
60832;BME280;46665;51.558;-0.448;2022-12-18T08:21:54;101297.16;;;-0.34;100.00
60832;BME280;46665;51.558;-0.448;2022-12-18T08:24:38;101288.97;;;-0.33;100.00
60832;BME280;46665;51.558;-0.448;2022-12-18T08:27:22;101291.41;;;-0.31;100.00
60832;BME280;46665;51.558;-0.448;2022-12-18T08:30:06;101298.88;;;-0.27;100.00
60832;BME280;46665;51.558;-0.448;2022-12-18T08:32:51;101302.38;;;-0.26;100.00
60832;BME280;46665;51.558;-0.448;2022-12-18T08:35:36;101302.19;;;-0.25;100.00
60832;BME280;46665;51.558;-0.448;2022-12-18T08:38:21;101293.13;;;-0.24;100.00
60832;BME280;46665;51.558;-0.448;2022-12-18T08:41:09;101304.59;;;-0.30;100.00
60832;BME280;46665;51.558;-0.448;2022-12-18T08:43:53;101298.22;;;-0.29;100.00
60832;BME280;46665;51.558;-0.448;2022-12-18T08:46:56;101304.22;;;-0.27;100.00
60832;BME280;46665;51.558;-0.448;2022-12-18T08:49:40;101301.38;;;-0.25;100.00
60832;BME280;46665;51.558;-0.448;2022-12-18T08:52:24;101293.13;;;-0.24;100.00
60832;BME280;46665;51.558;-0.448;2022-12-18T08:55:09;101286.56;;;-0.21;100.00
60832;BME280;46665;51.558;-0.448;2022-12-18T08:57:53;101289.44;;;-0.23;100.00
60832;BME280;46665;51.558;-0.448;2022-12-18T09:00:37;101285.16;;;-0.17;100.00
60832;BME280;46665;51.558;-0.448;2022-12-18T09:03:21;101296.50;;;-0.15;100.00
60832;BME280;46665;51.558;-0.448;2022-12-18T09:06:06;101284.59;;;-0.12;100.00
60832;BME280;46665;51.558;-0.448;2022-12-18T09:08:50;101282.50;;;-0.10;100.00
60832;BME280;46665;51.558;-0.448;2022-12-18T09:11:34;101277.81;;;-0.08;100.00
60832;BME280;46665;51.558;-0.448;2022-12-18T09:14:18;101285.66;;;-0.07;100.00
60832;BME280;46665;51.558;-0.448;2022-12-18T09:17:02;101295.13;;;-0.04;100.00
60832;BME280;46665;51.558;-0.448;2022-12-18T09:19:46;101287.53;;;-0.01;100.00
60832;BME280;46665;51.558;-0.448;2022-12-18T09:22:30;101284.66;;;0.01;100.00
60832;BME280;46665;51.558;-0.448;2022-12-18T09:25:14;101290.66;;;0.03;100.00
60832;BME280;46665;51.558;-0.448;2022-12-18T09:28:24;101299.31;;;0.05;100.00
60832;BME280;46665;51.558;-0.448;2022-12-18T09:31:11;101302.81;;;0.06;100.00
60832;BME280;46665;51.558;-0.448;2022-12-18T09:33:55;101297.06;;;0.09;100.00
60832;BME280;46665;51.558;-0.448;2022-12-18T09:36:40;101300.97;;;0.06;100.00
60832;BME280;46665;51.558;-0.448;2022-12-18T09:39:24;101295.03;;;0.11;100.00
60832;BME280;46665;51.558;-0.448;2022-12-18T09:42:18;101292.13;;;0.12;100.00
60832;BME280;46665;51.558;-0.448;2022-12-18T09:45:04;101290.09;;;0.14;100.00
60832;BME280;46665;51.558;-0.448;2022-12-18T09:47:51;101303.94;;;0.18;100.00
60832;BME280;46665;51.558;-0.448;2022-12-18T09:50:38;101309.28;;;0.18;100.00
60832;BME280;46665;51.558;-0.448;2022-12-18T09:53:26;101314.63;;;0.18;100.00
60832;BME280;46665;51.558;-0.448;2022-12-18T09:56:19;101312.16;;;0.16;100.00
60832;BME280;46665;51.558;-0.448;2022-12-18T09:59:18;101305.56;;;0.19;100.00
60832;BME280;46665;51.558;-0.448;2022-12-18T10:02:14;101309.72;;;0.21;100.00
60832;BME280;46665;51.558;-0.448;2022-12-18T10:05:09;101305.00;;;0.24;100.00
60832;BME280;46665;51.558;-0.448;2022-12-18T10:10:58;101297.63;;;0.32;100.00
60832;BME280;46665;51.558;-0.448;2022-12-18T10:13:55;101285.69;;;0.35;100.00
60832;BME280;46665;51.558;-0.448;2022-12-18T10:16:47;101289.81;;;0.37;100.00
60832;BME280;46665;51.558;-0.448;2022-12-18T10:19:56;101286.31;;;0.37;100.00
60832;BME280;46665;51.558;-0.448;2022-12-18T10:26:07;101276.03;;;0.40;100.00
60832;BME280;46665;51.558;-0.448;2022-12-18T10:28:53;101256.50;;;0.47;100.00
60832;BME280;46665;51.558;-0.448;2022-12-18T10:31:38;101242.94;;;0.48;100.00
60832;BME280;46665;51.558;-0.448;2022-12-18T10:34:23;101238.19;;;0.50;100.00
60832;BME280;46665;51.558;-0.448;2022-12-18T10:37:14;101239.03;;;0.51;100.00
60832;BME280;46665;51.558;-0.448;2022-12-18T10:48:55;101210.84;;;0.61;100.00
60832;BME280;46665;51.558;-0.448;2022-12-18T10:51:40;101203.03;;;0.67;100.00
60832;BME280;46665;51.558;-0.448;2022-12-18T10:54:25;101206.09;;;0.70;100.00
60832;BME280;46665;51.558;-0.448;2022-12-18T10:57:27;101210.47;;;0.71;100.00
60832;BME280;46665;51.558;-0.448;2022-12-18T11:00:27;101205.69;;;0.73;100.00
60832;BME280;46665;51.558;-0.448;2022-12-18T11:03:41;101191.06;;;0.76;100.00
60832;BME280;46665;51.558;-0.448;2022-12-18T11:06:25;101177.50;;;0.77;100.00
60832;BME280;46665;51.558;-0.448;2022-12-18T11:09:20;101168.00;;;0.75;100.00
60832;BME280;46665;51.558;-0.448;2022-12-18T11:12:15;101174.41;;;0.80;100.00
60832;BME280;46665;51.558;-0.448;2022-12-18T11:15:01;101172.34;;;0.82;100.00
60832;BME280;46665;51.558;-0.448;2022-12-18T11:17:50;101156.06;;;0.77;100.00
60832;BME280;46665;51.558;-0.448;2022-12-18T11:20:35;101147.19;;;0.83;100.00
60832;BME280;46665;51.558;-0.448;2022-12-18T11:23:21;101143.06;;;0.81;100.00
60832;BME280;46665;51.558;-0.448;2022-12-18T11:26:09;101134.66;;;0.84;100.00
60832;BME280;46665;51.558;-0.448;2022-12-18T11:29:08;101130.91;;;0.85;100.00
60832;BME280;46665;51.558;-0.448;2022-12-18T11:38:24;101119.78;;;0.88;100.00
60832;BME280;46665;51.558;-0.448;2022-12-18T11:41:30;101116.09;;;0.89;100.00
60832;BME280;46665;51.558;-0.448;2022-12-18T11:50:24;101117.53;;;0.92;100.00
60832;BME280;46665;51.558;-0.448;2022-12-18T11:53:12;101116.47;;;0.86;100.00
60832;BME280;46665;51.558;-0.448;2022-12-18T12:05:20;101072.00;;;0.92;100.00
60832;BME280;46665;51.558;-0.448;2022-12-18T12:26:10;101010.94;;;1.00;100.00
60832;BME280;46665;51.558;-0.448;2022-12-18T12:30:07;101015.06;;;1.03;100.00
60832;BME280;46665;51.558;-0.448;2022-12-18T12:36:24;101017.97;;;1.01;100.00
60832;BME280;46665;51.558;-0.448;2022-12-18T12:39:18;101014.88;;;1.04;100.00
60832;BME280;46665;51.558;-0.448;2022-12-18T12:42:11;101003.53;;;1.02;100.00
60832;BME280;46665;51.558;-0.448;2022-12-18T12:45:23;100991.56;;;1.05;100.00
60832;BME280;46665;51.558;-0.448;2022-12-18T12:48:21;100989.28;;;1.08;100.00
60832;BME280;46665;51.558;-0.448;2022-12-18T12:51:35;100988.88;;;1.12;100.00
60832;BME280;46665;51.558;-0.448;2022-12-18T12:54:23;100978.75;;;1.14;100.00
60832;BME280;46665;51.558;-0.448;2022-12-18T13:06:29;100941.22;;;1.20;100.00
60832;BME280;46665;51.558;-0.448;2022-12-18T13:09:09;100934.81;;;1.21;100.00
60832;BME280;46665;51.558;-0.448;2022-12-18T13:11:53;100924.94;;;1.22;100.00
60832;BME280;46665;51.558;-0.448;2022-12-18T13:15:20;100926.13;;;1.26;100.00
60832;BME280;46665;51.558;-0.448;2022-12-18T13:23:38;100913.53;;;1.33;100.00
60832;BME280;46665;51.558;-0.448;2022-12-18T13:29:09;100895.13;;;1.37;100.00
60832;BME280;46665;51.558;-0.448;2022-12-18T13:34:37;100884.00;;;1.40;100.00
60832;BME280;46665;51.558;-0.448;2022-12-18T13:37:41;100875.13;;;1.39;100.00
60832;BME280;46665;51.558;-0.448;2022-12-18T13:43:35;100870.16;;;1.43;100.00
60832;BME280;46665;51.558;-0.448;2022-12-18T13:46:21;100862.13;;;1.43;100.00
60832;BME280;46665;51.558;-0.448;2022-12-18T13:51:55;100847.06;;;1.42;100.00
60832;BME280;46665;51.558;-0.448;2022-12-18T13:54:41;100841.50;;;1.43;100.00
60832;BME280;46665;51.558;-0.448;2022-12-18T13:57:34;100844.56;;;1.47;100.00
60832;BME280;46665;51.558;-0.448;2022-12-18T14:03:17;100840.84;;;1.48;100.00
60832;BME280;46665;51.558;-0.448;2022-12-18T14:06:06;100842.09;;;1.45;100.00
60832;BME280;46665;51.558;-0.448;2022-12-18T14:08:52;100843.09;;;1.51;100.00
60832;BME280;46665;51.558;-0.448;2022-12-18T14:11:37;100839.38;;;1.52;100.00
60832;BME280;46665;51.558;-0.448;2022-12-18T14:14:21;100839.16;;;1.54;100.00
60832;BME280;46665;51.558;-0.448;2022-12-18T14:17:09;100836.47;;;1.54;100.00
60832;BME280;46665;51.558;-0.448;2022-12-18T14:19:54;100833.78;;;1.54;100.00
60832;BME280;46665;51.558;-0.448;2022-12-18T14:22:45;100827.41;;;1.55;100.00
60832;BME280;46665;51.558;-0.448;2022-12-18T14:25:31;100827.41;;;1.55;100.00
60832;BME280;46665;51.558;-0.448;2022-12-18T14:28:15;100827.97;;;1.57;100.00
60832;BME280;46665;51.558;-0.448;2022-12-18T14:31:00;100810.25;;;1.56;100.00
60832;BME280;46665;51.558;-0.448;2022-12-18T14:33:44;100809.22;;;1.57;100.00
60832;BME280;46665;51.558;-0.448;2022-12-18T14:36:28;100794.16;;;1.56;100.00
60832;BME280;46665;51.558;-0.448;2022-12-18T14:39:17;100794.78;;;1.58;100.00
60832;BME280;46665;51.558;-0.448;2022-12-18T14:42:01;100789.78;;;1.61;100.00
60832;BME280;46665;51.558;-0.448;2022-12-18T14:44:45;100802.19;;;1.62;100.00
60832;BME280;46665;51.558;-0.448;2022-12-18T14:47:29;100802.38;;;1.61;100.00
60832;BME280;46665;51.558;-0.448;2022-12-18T14:50:14;100798.22;;;1.65;100.00
60832;BME280;46665;51.558;-0.448;2022-12-18T14:52:58;100792.03;;;1.64;100.00
60832;BME280;46665;51.558;-0.448;2022-12-18T14:55:46;100780.28;;;1.65;100.00
60832;BME280;46665;51.558;-0.448;2022-12-18T14:58:31;100787.88;;;1.68;100.00
60832;BME280;46665;51.558;-0.448;2022-12-18T15:01:24;100775.50;;;1.67;100.00
60832;BME280;46665;51.558;-0.448;2022-12-18T15:07:20;100780.19;;;1.72;100.00
60832;BME280;46665;51.558;-0.448;2022-12-18T15:10:15;100766.78;;;1.72;100.00
60832;BME280;46665;51.558;-0.448;2022-12-18T15:15:45;100761.22;;;1.73;100.00
60832;BME280;46665;51.558;-0.448;2022-12-18T15:18:32;100759.94;;;1.76;100.00
60832;BME280;46665;51.558;-0.448;2022-12-18T15:21:19;100754.78;;;1.74;100.00
60832;BME280;46665;51.558;-0.448;2022-12-18T15:24:04;100746.31;;;1.78;100.00
60832;BME280;46665;51.558;-0.448;2022-12-18T15:26:59;100736.78;;;1.82;100.00
60832;BME280;46665;51.558;-0.448;2022-12-18T15:29:59;100726.84;;;1.82;100.00
60832;BME280;46665;51.558;-0.448;2022-12-18T15:32:44;100722.50;;;1.88;100.00
60832;BME280;46665;51.558;-0.448;2022-12-18T15:35:28;100722.50;;;1.88;100.00
60832;BME280;46665;51.558;-0.448;2022-12-18T15:38:12;100722.03;;;1.91;100.00
60832;BME280;46665;51.558;-0.448;2022-12-18T15:40:56;100705.34;;;1.89;100.00
60832;BME280;46665;51.558;-0.448;2022-12-18T15:43:41;100699.53;;;1.92;100.00
60832;BME280;46665;51.558;-0.448;2022-12-18T15:46:25;100705.88;;;1.98;100.00
60832;BME280;46665;51.558;-0.448;2022-12-18T15:49:10;100688.13;;;1.97;100.00
60832;BME280;46665;51.558;-0.448;2022-12-18T15:51:58;100685.84;;;2.00;100.00
60832;BME280;46665;51.558;-0.448;2022-12-18T15:54:43;100685.13;;;2.05;100.00
60832;BME280;46665;51.558;-0.448;2022-12-18T15:57:46;100668.59;;;2.08;100.00
60832;BME280;46665;51.558;-0.448;2022-12-18T16:00:30;100679.91;;;2.10;100.00
60832;BME280;46665;51.558;-0.448;2022-12-18T16:03:15;100668.75;;;2.13;100.00
60832;BME280;46665;51.558;-0.448;2022-12-18T16:05:59;100670.16;;;2.15;100.00
60832;BME280;46665;51.558;-0.448;2022-12-18T16:08:45;100650.91;;;2.19;100.00
60832;BME280;46665;51.558;-0.448;2022-12-18T16:11:31;100650.25;;;2.23;100.00